createdAt,value
2022-10-19T00:01:33.397Z,1.67
2022-10-19T00:04:02.492Z,1.38
2022-10-19T00:06:34.011Z,1.20
2022-10-19T00:09:05.165Z,2.58
2022-10-19T00:11:33.134Z,1.17
2022-10-19T00:14:00.718Z,1.17
2022-10-19T00:16:30.412Z,1.25
2022-10-19T00:18:58.026Z,1.60
2022-10-19T00:21:24.933Z,1.08
2022-10-19T00:23:51.350Z,2.38
2022-10-19T00:26:18.165Z,1.35
2022-10-19T00:28:44.867Z,1.10
2022-10-19T00:31:17.406Z,1.30
2022-10-19T00:33:46.753Z,1.60
2022-10-19T00:36:19.280Z,2.03
2022-10-19T00:38:45.672Z,1.50
2022-10-19T00:41:12.130Z,1.40
2022-10-19T00:44:13.598Z,1.63
2022-10-19T00:46:43.313Z,1.23
2022-10-19T00:49:15.640Z,1.20
2022-10-19T00:51:45.005Z,1.95
2022-10-19T00:54:12.425Z,1.35
2022-10-19T00:56:42.644Z,1.38
2022-10-19T00:59:10.424Z,1.25
2022-10-19T01:01:37.342Z,1.52
2022-10-19T01:04:04.617Z,1.42
2022-10-19T01:06:32.053Z,1.60
2022-10-19T01:08:58.534Z,1.25
2022-10-19T01:11:39.687Z,1.02
2022-10-19T01:14:24.587Z,1.85
2022-10-19T01:17:11.048Z,1.60
2022-10-19T01:20:08.268Z,1.55
2022-10-19T01:22:56.349Z,3.10
2022-10-19T01:25:35.097Z,1.27
2022-10-19T01:28:20.475Z,1.48
2022-10-19T01:30:58.597Z,1.80
2022-10-19T01:33:43.282Z,1.15
2022-10-19T01:36:28.786Z,1.50
2022-10-19T01:39:04.107Z,1.58
2022-10-19T01:41:41.397Z,1.38
2022-10-19T01:44:17.308Z,1.10
2022-10-19T01:46:56.752Z,0.70
2022-10-19T01:49:35.167Z,1.05
2022-10-19T01:52:08.442Z,0.95
2022-10-19T01:54:42.582Z,0.80
2022-10-19T01:57:12.413Z,1.17
2022-10-19T01:59:39.569Z,0.95
2022-10-19T02:02:08.845Z,1.48
2022-10-19T02:04:36.821Z,0.80
2022-10-19T02:07:06.506Z,0.95
2022-10-19T02:09:33.169Z,1.00
2022-10-19T02:12:04.889Z,0.90
2022-10-19T02:14:37.554Z,0.90
2022-10-19T02:17:13.971Z,0.90
2022-10-19T02:19:41.316Z,1.10
2022-10-19T02:22:08.691Z,1.05
2022-10-19T02:24:35.132Z,0.98
2022-10-19T02:27:04.871Z,0.68
2022-10-19T02:29:33.127Z,1.20
2022-10-19T02:34:27.054Z,0.80
2022-10-19T02:36:54.240Z,0.68
2022-10-19T02:39:21.378Z,0.85
2022-10-19T02:42:04.160Z,1.10
2022-10-19T02:44:56.864Z,0.80
2022-10-19T02:49:54.908Z,0.60
2022-10-19T02:52:21.435Z,1.00
2022-10-19T02:54:47.926Z,1.00
2022-10-19T02:57:15.601Z,1.02
2022-10-19T02:59:42.006Z,1.00
2022-10-19T03:02:08.550Z,0.70
2022-10-19T03:04:35.031Z,1.08
2022-10-19T03:07:01.695Z,1.20
2022-10-19T03:09:28.145Z,1.00
2022-10-19T03:11:57.323Z,0.90
2022-10-19T03:14:23.803Z,1.20
2022-10-19T03:16:50.238Z,1.00
2022-10-19T03:19:16.674Z,1.27
2022-10-19T03:21:43.095Z,1.17
2022-10-19T03:24:10.056Z,1.10
2022-10-19T03:26:36.592Z,1.30
2022-10-19T03:29:03.349Z,1.17
2022-10-19T03:31:29.879Z,1.30
2022-10-19T03:33:56.452Z,1.40
2022-10-19T03:36:24.691Z,1.10
2022-10-19T03:38:56.080Z,1.50
2022-10-19T03:41:24.349Z,1.13
2022-10-19T03:43:51.166Z,1.30
2022-10-19T03:46:17.674Z,1.60
2022-10-19T03:48:44.491Z,2.45
2022-10-19T03:51:16.759Z,1.38
2022-10-19T03:53:43.701Z,1.48
2022-10-19T03:56:15.464Z,1.40
2022-10-19T03:58:43.537Z,1.30
2022-10-19T04:01:16.498Z,1.77
2022-10-19T04:03:43.635Z,1.17
2022-10-19T04:06:15.840Z,1.58
2022-10-19T04:08:48.074Z,1.52
2022-10-19T04:11:16.422Z,1.60
2022-10-19T04:16:13.301Z,1.65
2022-10-19T04:18:39.757Z,1.73
2022-10-19T04:21:06.817Z,1.42
2022-10-19T04:23:35.839Z,1.98
2022-10-19T04:26:04.290Z,1.25
2022-10-19T04:30:57.176Z,1.85
2022-10-19T04:33:23.784Z,1.30
2022-10-19T04:35:50.226Z,1.70
2022-10-19T04:38:16.714Z,2.00
2022-10-19T04:40:43.218Z,1.73
2022-10-19T04:43:09.624Z,1.25
2022-10-19T04:45:36.136Z,1.75
2022-10-19T04:48:02.497Z,1.70
2022-10-19T04:50:28.988Z,1.33
2022-10-19T04:52:55.464Z,1.70
2022-10-19T04:55:21.967Z,1.83
2022-10-19T04:57:48.599Z,1.38
2022-10-19T05:00:15.588Z,1.58
2022-10-19T05:02:46.114Z,1.42
2022-10-19T05:05:14.208Z,1.63
2022-10-19T05:07:40.832Z,2.25
2022-10-19T05:10:10.967Z,1.70
2022-10-19T05:12:37.482Z,1.80
2022-10-19T05:15:04.321Z,1.95
2022-10-19T05:17:32.282Z,2.03
2022-10-19T05:19:58.943Z,1.85
2022-10-19T05:22:25.495Z,1.77
2022-10-19T05:24:55.851Z,1.70
2022-10-19T05:27:24.787Z,1.67
2022-10-19T05:29:51.283Z,1.95
2022-10-19T05:32:17.753Z,1.83
2022-10-19T05:34:44.285Z,2.08
2022-10-19T05:37:10.752Z,1.58
2022-10-19T05:39:37.229Z,2.28
2022-10-19T05:42:03.620Z,2.28
2022-10-19T05:44:30.252Z,1.80
2022-10-19T05:46:56.753Z,2.05
2022-10-19T05:49:23.303Z,1.42
2022-10-19T05:51:50.244Z,1.60
2022-10-19T05:54:16.712Z,1.90
2022-10-19T05:56:43.920Z,1.90
2022-10-19T05:59:15.382Z,1.85
2022-10-19T06:01:41.850Z,2.42
2022-10-19T06:04:08.434Z,2.25
2022-10-19T06:06:34.893Z,1.85
2022-10-19T06:09:01.527Z,1.90
2022-10-19T06:11:35.117Z,1.70
2022-10-19T06:14:04.041Z,2.17
2022-10-19T06:16:31.711Z,2.08
2022-10-19T06:18:59.099Z,1.88
2022-10-19T06:21:28.536Z,2.13
2022-10-19T06:24:01.512Z,3.00
2022-10-19T06:26:30.325Z,8.00
2022-10-19T06:29:00.275Z,10.38
2022-10-19T06:31:31.739Z,4.75
2022-10-19T06:33:58.620Z,3.92
2022-10-19T06:36:27.844Z,3.22
2022-10-19T06:38:55.881Z,2.92
2022-10-19T06:41:23.002Z,2.88
2022-10-19T06:43:51.100Z,2.75
2022-10-19T06:46:20.485Z,2.97
2022-10-19T06:48:58.106Z,3.08
2022-10-19T06:51:26.178Z,4.00
2022-10-19T06:53:56.618Z,3.00
2022-10-19T06:56:24.651Z,2.65
2022-10-19T06:58:51.712Z,2.20
2022-10-19T07:01:18.467Z,3.13
2022-10-19T07:03:45.108Z,2.58
2022-10-19T07:06:12.940Z,3.00
2022-10-19T07:08:41.564Z,2.45
2022-10-19T07:11:10.891Z,2.50
2022-10-19T07:13:38.071Z,2.40
2022-10-19T07:16:08.007Z,2.72
2022-10-19T07:18:36.293Z,2.35
2022-10-19T07:21:05.926Z,2.70
2022-10-19T07:23:34.440Z,2.03
2022-10-19T07:26:23.172Z,1.95
2022-10-19T07:28:49.779Z,2.38
2022-10-19T07:31:18.396Z,3.33
2022-10-19T07:33:45.019Z,2.08
2022-10-19T07:36:13.604Z,2.00
2022-10-19T07:38:40.704Z,1.77
2022-10-19T07:41:13.081Z,4.95
2022-10-19T07:43:40.611Z,2.70
2022-10-19T07:46:09.642Z,2.53
2022-10-19T07:48:36.117Z,2.10
2022-10-19T07:51:05.720Z,1.52
2022-10-19T07:53:32.752Z,2.13
2022-10-19T07:56:11.086Z,2.03
2022-10-19T07:58:37.908Z,1.52
2022-10-19T08:01:12.582Z,1.83
2022-10-19T08:06:26.477Z,1.40
2022-10-19T08:08:54.100Z,2.22
2022-10-19T08:11:25.244Z,1.83
2022-10-19T08:13:52.325Z,1.88
2022-10-19T08:16:37.279Z,1.95
2022-10-19T08:19:07.121Z,2.03
2022-10-19T08:21:34.726Z,1.75
2022-10-19T08:24:01.195Z,2.10
2022-10-19T08:26:32.312Z,1.92
2022-10-19T08:29:00.551Z,1.60
2022-10-19T08:33:53.440Z,1.40
2022-10-19T08:36:21.180Z,2.10
2022-10-19T08:38:48.860Z,2.20
2022-10-19T08:41:23.125Z,2.50
2022-10-19T08:44:04.022Z,1.58
2022-10-19T08:47:08.730Z,1.52
2022-10-19T08:49:36.359Z,1.83
2022-10-19T08:52:17.694Z,1.98
2022-10-19T08:54:51.049Z,1.25
2022-10-19T08:57:24.297Z,1.92
2022-10-19T09:00:27.776Z,1.17
2022-10-19T09:03:31.874Z,0.98
2022-10-19T09:06:29.798Z,1.50
2022-10-19T09:08:57.697Z,1.50
2022-10-19T09:11:35.458Z,1.63
2022-10-19T09:14:17.698Z,1.55
2022-10-19T09:16:44.253Z,0.82
2022-10-19T09:19:21.971Z,1.35
2022-10-19T09:22:15.908Z,1.08
2022-10-19T09:24:49.158Z,1.45
2022-10-19T09:27:39.566Z,1.20
2022-10-19T09:30:16.941Z,1.02
2022-10-19T09:32:43.494Z,0.88
2022-10-19T09:35:34.099Z,1.00
2022-10-19T09:38:00.754Z,1.13
2022-10-19T09:40:29.808Z,0.98
2022-10-19T09:42:58.180Z,0.55
2022-10-19T09:45:57.297Z,1.13
2022-10-19T09:48:30.858Z,1.02
2022-10-19T09:51:02.476Z,1.30
2022-10-19T09:53:30.093Z,0.60
2022-10-19T09:56:04.883Z,0.63
2022-10-19T09:58:33.101Z,0.70
2022-10-19T10:01:01.740Z,0.57
2022-10-19T10:06:06.018Z,0.90
2022-10-19T10:08:45.162Z,0.90
2022-10-19T10:11:24.094Z,0.60
2022-10-19T10:13:55.891Z,0.95
2022-10-19T10:16:29.220Z,0.45
2022-10-19T10:19:02.637Z,0.95
2022-10-19T10:21:36.335Z,0.85
2022-10-19T10:24:16.754Z,0.75
2022-10-19T10:29:39.065Z,0.75
2022-10-19T10:32:11.358Z,1.00
2022-10-19T10:34:50.634Z,0.45
2022-10-19T10:37:23.208Z,0.65
2022-10-19T10:39:57.708Z,0.57
2022-10-19T10:42:32.820Z,1.10
2022-10-19T10:44:59.848Z,0.60
2022-10-19T10:47:28.166Z,0.93
2022-10-19T10:49:58.903Z,1.02
2022-10-19T10:52:28.220Z,0.73
2022-10-19T10:55:09.848Z,1.08
2022-10-19T10:57:46.411Z,0.95
2022-10-19T11:00:16.606Z,0.68
2022-10-19T11:03:01.168Z,0.82
2022-10-19T11:05:40.640Z,0.60
2022-10-19T11:08:31.880Z,0.65
2022-10-19T11:11:30.395Z,1.08
2022-10-19T11:13:59.863Z,1.63
2022-10-19T11:16:39.815Z,0.70
2022-10-19T11:19:11.566Z,1.00
2022-10-19T11:21:44.305Z,0.60
2022-10-19T11:24:32.039Z,0.70
2022-10-19T11:27:19.933Z,1.08
2022-10-19T11:29:57.467Z,0.95
2022-10-19T11:32:56.177Z,0.70
2022-10-19T11:38:30.403Z,1.73
2022-10-19T11:41:18.330Z,0.60
2022-10-19T11:44:09.668Z,1.58
2022-10-19T11:46:55.379Z,0.85
2022-10-19T11:49:49.375Z,0.90
2022-10-19T11:52:38.983Z,0.70
2022-10-19T11:55:30.640Z,0.90
2022-10-19T11:58:35.495Z,1.00
2022-10-19T12:04:23.126Z,0.90
2022-10-19T12:06:59.852Z,1.00
2022-10-19T12:09:39.268Z,1.25
2022-10-19T12:12:18.734Z,1.50
2022-10-19T12:14:50.835Z,1.40
2022-10-19T12:17:34.184Z,0.82
2022-10-19T12:20:07.115Z,0.85
2022-10-19T12:22:34.436Z,1.15
2022-10-19T12:25:01.867Z,1.63
2022-10-19T12:27:34.273Z,1.25
2022-10-19T12:30:14.922Z,1.00
2022-10-19T12:33:08.805Z,1.00
2022-10-19T12:35:45.652Z,1.48
2022-10-19T12:39:00.029Z,1.25
2022-10-19T12:41:39.019Z,0.95
2022-10-19T12:44:21.243Z,0.93
2022-10-19T12:46:56.452Z,0.85
2022-10-19T12:49:31.064Z,1.50
2022-10-19T12:51:59.604Z,1.65
2022-10-19T12:54:28.937Z,1.35
2022-10-19T12:56:57.412Z,1.05
2022-10-19T12:59:25.534Z,1.52
2022-10-19T13:04:23.266Z,1.50
2022-10-19T13:06:58.510Z,0.88
2022-10-19T13:09:35.347Z,1.67
2022-10-19T13:12:17.660Z,1.35
2022-10-19T13:14:50.516Z,1.52
2022-10-19T13:17:40.608Z,1.38
2022-10-19T13:20:16.129Z,1.42
2022-10-19T13:23:11.878Z,1.58
2022-10-19T13:25:39.234Z,1.98
2022-10-19T13:28:26.763Z,1.35
2022-10-19T13:30:54.604Z,1.77
2022-10-19T13:33:25.560Z,1.33
2022-10-19T13:36:04.171Z,2.80
2022-10-19T13:38:31.584Z,1.17
2022-10-19T13:41:15.458Z,1.95
2022-10-19T13:44:03.870Z,1.27
2022-10-19T13:46:30.237Z,1.30
2022-10-19T13:49:27.743Z,1.20
2022-10-19T13:52:09.023Z,1.40
2022-10-19T13:54:57.287Z,1.83
2022-10-19T13:57:54.232Z,1.20
2022-10-19T14:00:23.753Z,1.48
2022-10-19T14:03:00.791Z,2.13
2022-10-19T14:05:53.616Z,1.50
2022-10-19T14:08:30.259Z,1.48
2022-10-19T14:11:06.139Z,1.83
2022-10-19T14:13:32.747Z,1.23
2022-10-19T14:16:03.139Z,1.25
2022-10-19T14:18:36.003Z,1.17
2022-10-19T14:21:06.013Z,1.00
2022-10-19T14:23:35.465Z,1.38
2022-10-19T14:26:07.327Z,1.73
2022-10-19T14:28:34.508Z,1.30
2022-10-19T14:31:04.565Z,1.55
2022-10-19T14:33:39.436Z,2.10
2022-10-19T14:36:08.067Z,1.52
2022-10-19T14:38:38.605Z,3.10
2022-10-19T14:41:06.760Z,1.92
2022-10-19T14:46:06.514Z,1.50
2022-10-19T14:48:38.952Z,1.48
2022-10-19T14:51:14.878Z,1.77
2022-10-19T14:53:49.767Z,1.67
2022-10-19T14:56:46.927Z,1.77
2022-10-19T14:59:27.200Z,1.63
2022-10-19T15:04:32.647Z,1.75
2022-10-19T15:07:03.035Z,2.00
2022-10-19T15:09:37.471Z,1.42
2022-10-19T15:12:16.991Z,2.92
2022-10-19T15:14:44.548Z,1.70
2022-10-19T15:17:29.479Z,1.38
2022-10-19T15:20:01.328Z,2.15
2022-10-19T15:22:30.966Z,1.90
2022-10-19T15:25:06.524Z,1.65
2022-10-19T15:27:38.916Z,2.28
2022-10-19T15:30:31.514Z,1.92
2022-10-19T15:33:09.493Z,2.53
2022-10-19T15:35:39.041Z,2.17
2022-10-19T15:38:21.893Z,2.63
2022-10-19T15:40:49.252Z,2.05
2022-10-19T15:43:31.842Z,2.30
2022-10-19T15:46:01.422Z,2.45
2022-10-19T15:48:41.499Z,3.05
2022-10-19T15:51:33.064Z,2.33
2022-10-19T15:54:05.396Z,2.20
2022-10-19T15:56:34.901Z,2.85
2022-10-19T15:59:03.748Z,2.13
2022-10-19T16:01:32.345Z,2.97
2022-10-19T16:03:59.713Z,2.67
2022-10-19T16:06:28.859Z,2.55
2022-10-19T16:08:55.688Z,2.60
2022-10-19T16:11:23.286Z,2.33
2022-10-19T16:13:50.146Z,3.00
2022-10-19T16:16:28.997Z,2.90
2022-10-19T16:18:56.485Z,2.22
2022-10-19T16:21:27.763Z,2.72
2022-10-19T16:23:54.196Z,2.58
2022-10-19T16:26:21.281Z,2.80
2022-10-19T16:28:48.716Z,2.92
2022-10-19T16:31:16.158Z,3.03
2022-10-19T16:33:42.542Z,3.30
2022-10-19T16:36:09.127Z,2.95
2022-10-19T16:38:36.496Z,3.25
2022-10-19T16:41:05.652Z,4.03
2022-10-19T16:43:32.180Z,3.28
2022-10-19T16:45:58.663Z,3.10
2022-10-19T16:48:25.535Z,3.25
2022-10-19T16:51:07.321Z,3.72
2022-10-19T16:53:35.164Z,4.07
2022-10-19T16:56:10.997Z,3.17
2022-10-19T16:58:38.198Z,3.58
2022-10-19T17:01:23.028Z,3.53
2022-10-19T17:03:50.001Z,3.97
2022-10-19T17:06:17.254Z,3.63
2022-10-19T17:09:14.771Z,3.33
2022-10-19T17:11:34.086Z,3.20
2022-10-19T17:14:04.107Z,3.53
2022-10-19T17:16:32.883Z,3.22
2022-10-19T17:19:00.843Z,3.20
2022-10-19T17:21:30.324Z,3.55
2022-10-19T17:24:02.256Z,3.10
2022-10-19T17:26:35.143Z,2.88
2022-10-19T17:29:02.050Z,4.05
2022-10-19T17:31:29.366Z,4.05
2022-10-19T17:33:56.453Z,3.47
2022-10-19T17:36:26.290Z,2.88
2022-10-19T17:38:57.657Z,3.47
2022-10-19T17:41:24.907Z,3.67
2022-10-19T17:43:52.104Z,3.28
2022-10-19T17:46:22.989Z,2.80
2022-10-19T17:48:49.857Z,2.50
2022-10-19T17:51:35.718Z,3.25
2022-10-19T17:54:05.140Z,3.00
2022-10-19T17:56:31.737Z,3.33
2022-10-19T17:58:58.503Z,3.45
2022-10-19T18:01:26.023Z,3.20
2022-10-19T18:03:52.980Z,3.10
2022-10-19T18:06:24.672Z,3.28
2022-10-19T18:08:54.012Z,3.45
2022-10-19T18:11:29.402Z,3.25
2022-10-19T18:13:58.309Z,3.50
2022-10-19T18:16:27.419Z,3.40
2022-10-19T18:18:56.760Z,3.50
2022-10-19T18:21:26.880Z,3.67
2022-10-19T18:23:56.072Z,3.83
2022-10-19T18:26:29.769Z,3.35
2022-10-19T18:28:57.218Z,3.78
2022-10-19T18:31:29.140Z,3.92
2022-10-19T18:33:58.649Z,4.03
2022-10-19T18:36:25.160Z,3.72
2022-10-19T18:38:53.112Z,3.63
2022-10-19T18:41:20.259Z,3.58
2022-10-19T18:43:52.316Z,3.80
2022-10-19T18:46:21.180Z,3.40
2022-10-19T18:48:48.107Z,4.72
2022-10-19T18:51:17.442Z,5.05
2022-10-19T18:53:44.865Z,4.10
2022-10-19T18:56:12.922Z,3.58
2022-10-19T18:58:39.567Z,3.80
2022-10-19T19:01:24.455Z,3.75
2022-10-19T19:03:53.764Z,3.83
2022-10-19T19:06:22.239Z,4.35
2022-10-19T19:08:49.291Z,4.13
2022-10-19T19:11:37.459Z,4.45
2022-10-19T19:14:16.296Z,3.65
2022-10-19T19:16:44.643Z,4.53
2022-10-19T19:19:13.666Z,3.65
2022-10-19T19:21:43.673Z,4.07
2022-10-19T19:24:12.637Z,4.30
2022-10-19T19:26:41.568Z,3.63
2022-10-19T19:29:08.227Z,4.03
2022-10-19T19:31:34.883Z,3.92
2022-10-19T19:34:02.443Z,4.07
2022-10-19T19:36:28.953Z,4.20
2022-10-19T19:38:57.195Z,4.22
2022-10-19T19:43:50.259Z,4.47
2022-10-19T19:46:19.268Z,3.72
2022-10-19T19:48:48.051Z,3.15
2022-10-19T19:51:19.086Z,4.05
2022-10-19T19:53:47.195Z,4.55
2022-10-19T19:56:16.818Z,4.57
2022-10-19T19:58:44.807Z,4.40
2022-10-19T20:01:17.811Z,3.72
2022-10-19T20:03:45.972Z,4.45
2022-10-19T20:06:13.426Z,4.00
2022-10-19T20:08:40.012Z,4.50
2022-10-19T20:11:12.335Z,4.75
2022-10-19T20:13:39.307Z,4.75
2022-10-19T20:16:12.596Z,4.03
2022-10-19T20:18:44.714Z,4.90
2022-10-19T20:21:11.360Z,4.75
2022-10-19T20:23:38.565Z,3.78
2022-10-19T20:26:05.316Z,4.05
2022-10-19T20:28:33.181Z,4.07
2022-10-19T20:31:01.801Z,3.85
2022-10-19T20:33:30.085Z,5.40
2022-10-19T20:38:23.015Z,4.25
2022-10-19T20:40:49.767Z,4.13
2022-10-19T20:43:17.511Z,4.03
2022-10-19T20:45:43.974Z,3.60
2022-10-19T20:48:10.352Z,4.05
2022-10-19T20:50:39.057Z,3.60
2022-10-19T20:53:05.433Z,4.43
2022-10-19T20:55:33.410Z,4.63
2022-10-19T20:57:59.803Z,4.25
2022-10-19T21:00:26.209Z,3.67
2022-10-19T21:02:53.527Z,4.10
2022-10-19T21:05:20.007Z,3.45
2022-10-19T21:07:46.415Z,3.75
2022-10-19T21:10:12.811Z,4.03
2022-10-19T21:12:39.224Z,4.05
2022-10-19T21:15:06.046Z,3.38
2022-10-19T21:17:32.618Z,3.30
2022-10-19T21:20:01.505Z,3.83
2022-10-19T21:22:27.978Z,3.83
2022-10-19T21:24:54.373Z,3.33
2022-10-19T21:27:21.081Z,4.38
2022-10-19T21:29:47.457Z,3.45
2022-10-19T21:32:13.883Z,3.55
2022-10-19T21:34:40.257Z,3.60
2022-10-19T21:37:06.742Z,3.50
2022-10-19T21:39:33.202Z,3.40
2022-10-19T21:41:59.583Z,3.42
2022-10-19T21:44:26.126Z,4.20
2022-10-19T21:46:53.001Z,4.35
2022-10-19T21:49:21.913Z,4.38
2022-10-19T21:51:54.267Z,3.42
2022-10-19T21:54:29.064Z,3.92
2022-10-19T21:56:57.633Z,3.33
2022-10-19T21:59:25.063Z,3.33
2022-10-19T22:01:51.916Z,3.00
2022-10-19T22:04:18.839Z,3.13
2022-10-19T22:06:45.441Z,3.92
2022-10-19T22:09:17.967Z,4.10
2022-10-19T22:11:44.998Z,3.38
2022-10-19T22:14:13.294Z,4.13
2022-10-19T22:19:06.919Z,3.50
2022-10-19T22:21:34.495Z,3.88
2022-10-19T22:24:04.885Z,3.83
2022-10-19T22:26:37.920Z,3.35
2022-10-19T22:29:05.871Z,3.28
2022-10-19T22:31:33.742Z,3.45
2022-10-19T22:34:01.754Z,3.60
2022-10-19T22:36:28.482Z,3.78
2022-10-19T22:38:55.173Z,4.22
2022-10-19T22:41:21.711Z,2.97
2022-10-19T22:43:48.106Z,3.60
2022-10-19T22:46:14.610Z,4.18
2022-10-19T22:48:40.974Z,3.55
2022-10-19T22:51:09.754Z,3.67
2022-10-19T22:53:36.162Z,3.65
2022-10-19T22:56:02.825Z,3.25
2022-10-19T22:58:29.287Z,4.97
2022-10-19T23:01:04.418Z,3.25
2022-10-19T23:03:30.932Z,3.88
2022-10-19T23:05:57.430Z,3.42
2022-10-19T23:08:24.603Z,3.70
2022-10-19T23:10:51.142Z,4.15
2022-10-19T23:13:17.608Z,4.68
2022-10-19T23:15:45.012Z,3.90
2022-10-19T23:18:15.051Z,3.20
2022-10-19T23:20:41.512Z,4.38
2022-10-19T23:23:08.746Z,3.85
2022-10-19T23:25:35.144Z,3.92
2022-10-19T23:28:01.561Z,4.05
2022-10-19T23:30:28.016Z,4.03
2022-10-19T23:32:55.934Z,4.47
2022-10-19T23:35:22.429Z,3.85
2022-10-19T23:37:49.091Z,4.47
2022-10-19T23:40:15.602Z,4.22
2022-10-19T23:42:42.247Z,4.43
2022-10-19T23:45:08.980Z,3.53
2022-10-19T23:47:35.563Z,4.30
2022-10-19T23:50:02.177Z,3.88
2022-10-19T23:52:28.609Z,4.72
2022-10-19T23:54:55.023Z,4.55
2022-10-19T23:57:21.420Z,4.93
2022-10-19T23:59:50.187Z,4.88
